Time;durP1;ratioP1;P1;durP2;ratioP2;P2;SDS_P1;SDS_P2;PMS_P1;PMS_P2;Temp;Humidity;BMP_temperature;BMP_pressure;BME280_temperature;BME280_humidity;BME280_pressure;Samples;Min_cycle;Max_cycle;Signal;HPM_P1;HPM_P2
2022/01/28 00:01:00;;;;;;;7.85;1.38;;;;;;;3.31;96.10;102998.13;5046646;28;20060;-77
2022/01/28 00:03:25;;;;;;;12.13;1.65;;;;;;;3.31;95.69;103008.38;5046386;28;20032;-78
2022/01/28 00:05:51;;;;;;;15.97;2.43;;;;;;;3.29;95.61;103007.44;5047995;28;20025;-78
2022/01/28 00:08:16;;;;;;;10.50;1.27;;;;;;;3.28;95.40;103008.25;5032394;28;20358;-77
2022/01/28 00:10:42;;;;;;;14.45;1.50;;;;;;;3.26;95.22;103022.69;5047202;28;20391;-78
2022/01/28 00:13:20;;;;;;;15.23;2.45;;;;;;;3.25;95.22;103023.50;5046098;28;20125;-77
2022/01/28 00:15:59;;;;;;;12.32;1.50;;;;;;;3.25;94.62;103026.94;5049839;28;20040;-78
2022/01/28 00:19:00;;;;;;;16.70;1.70;;;;;;;3.24;94.76;103035.44;5046110;28;20042;-83
2022/01/28 00:40:25;;;;;;;11.80;1.33;;;;;;;3.13;95.00;103023.88;5041958;28;20065;-83
2022/01/28 00:42:50;;;;;;;14.40;1.95;;;;;;;3.10;94.75;103022.06;5032144;28;20021;-84
2022/01/28 00:45:15;;;;;;;12.20;1.80;;;;;;;3.12;95.23;103029.81;5033437;28;20048;-83
2022/01/28 00:47:41;;;;;;;16.58;1.65;;;;;;;3.08;95.08;103025.34;5063654;28;20380;-83
2022/01/28 00:50:06;;;;;;;13.15;1.30;;;;;;;3.08;94.99;103027.91;5064402;28;20025;-79
2022/01/28 00:52:32;;;;;;;12.80;1.70;;;;;;;3.05;95.71;103027.81;5051519;28;20055;-78
2022/01/28 00:54:57;;;;;;;9.13;1.47;;;;;;;3.04;95.35;103032.06;5053457;28;20036;-78
2022/01/28 00:57:22;;;;;;;13.90;1.40;;;;;;;2.99;95.77;103023.31;5033418;28;20298;-78
2022/01/28 00:59:47;;;;;;;11.63;1.70;;;;;;;3.03;95.72;103031.97;5038788;28;20029;-77
2022/01/28 01:02:13;;;;;;;16.00;2.10;;;;;;;3.03;95.99;103035.41;5055359;28;20395;-78
2022/01/28 01:04:40;;;;;;;15.27;1.75;;;;;;;3.04;95.94;103032.06;5057717;28;20035;-78
2022/01/28 01:07:06;;;;;;;11.70;1.83;;;;;;;3.04;95.55;103037.19;5071092;28;20218;-77
2022/01/28 01:09:31;;;;;;;10.68;1.60;;;;;;;3.05;95.91;103031.25;5070902;28;20104;-77
2022/01/28 01:11:56;;;;;;;10.48;1.30;;;;;;;3.04;95.57;103032.06;5053233;28;20247;-78
2022/01/28 01:14:21;;;;;;;14.40;1.67;;;;;;;3.07;95.74;103032.16;5056364;28;20029;-77
2022/01/28 01:17:06;;;;;;;17.67;2.00;;;;;;;3.09;95.51;103028.00;5064638;28;20360;-78
2022/01/28 01:19:37;;;;;;;10.65;1.38;;;;;;;3.13;95.46;103034.13;5048992;28;20475;-77
2022/01/28 01:22:03;;;;;;;10.77;1.70;;;;;;;3.15;95.48;103033.38;5068179;28;20073;-78
2022/01/28 01:24:35;;;;;;;10.85;1.33;;;;;;;3.18;95.17;103036.06;5068728;28;20029;-77
2022/01/28 01:27:01;;;;;;;10.38;1.70;;;;;;;3.22;94.93;103043.88;5070745;28;20426;-77
2022/01/28 01:29:26;;;;;;;9.75;1.40;;;;;;;3.26;95.61;103051.78;5056872;28;20552;-77
2022/01/28 01:32:00;;;;;;;11.35;1.20;;;;;;;3.28;94.99;103057.81;5067912;28;20509;-78
2022/01/28 01:34:26;;;;;;;10.90;1.30;;;;;;;3.26;94.83;103056.00;5052468;28;20052;-78
2022/01/28 01:36:51;;;;;;;9.90;1.50;;;;;;;3.25;95.54;103057.69;5070323;28;20052;-77
2022/01/28 01:39:23;;;;;;;15.30;1.50;;;;;;;3.24;95.41;103055.94;5068528;28;20028;-78
2022/01/28 01:41:56;;;;;;;7.65;1.20;;;;;;;3.23;95.43;103069.56;5054661;28;20024;-77
2022/01/28 01:52:32;;;;;;;8.03;1.30;;;;;;;3.32;95.16;103090.47;5052392;28;20039;-83
2022/01/28 01:54:57;;;;;;;12.10;1.35;;;;;;;3.33;95.42;103099.91;5051075;28;20128;-83
2022/01/28 01:57:22;;;;;;;13.05;1.40;;;;;;;3.33;95.27;103097.34;5055764;28;20021;-83
2022/01/28 01:59:48;;;;;;;10.27;1.60;;;;;;;3.33;94.72;103099.91;5068845;28;20036;-83
2022/01/28 02:02:14;;;;;;;11.02;1.10;;;;;;;3.32;94.97;103100.72;5069479;28;20027;-83
2022/01/28 02:04:39;;;;;;;16.90;1.77;;;;;;;3.33;95.32;103111.84;5069679;28;20105;-83
2022/01/28 02:07:05;;;;;;;8.50;1.55;;;;;;;3.31;94.48;103118.59;5057099;28;20052;-83
2022/01/28 02:09:30;;;;;;;12.10;1.33;;;;;;;3.32;94.72;103110.09;5063344;28;20032;-84
2022/01/28 02:11:56;;;;;;;13.80;2.05;;;;;;;3.31;94.64;103118.59;5050084;28;20025;-83
2022/01/28 02:14:21;;;;;;;11.07;1.20;;;;;;;3.29;94.76;103118.50;5067244;28;20039;-83
2022/01/28 02:16:47;;;;;;;12.95;1.50;;;;;;;3.24;94.88;103121.69;5069685;28;20028;-83
2022/01/28 02:19:12;;;;;;;10.88;1.73;;;;;;;3.24;95.35;103126.81;5062365;28;20103;-78
2022/01/28 02:21:44;;;;;;;13.38;1.60;;;;;;;3.23;95.87;103127.63;5039363;28;20032;-78
2022/01/28 02:24:11;;;;;;;12.77;1.55;;;;;;;3.21;95.26;103132.69;5062356;28;20052;-78
2022/01/28 02:26:37;;;;;;;10.15;1.25;;;;;;;3.16;95.28;103132.50;5059368;28;20044;-78
2022/01/28 02:29:10;;;;;;;11.88;1.30;;;;;;;3.14;95.65;103141.78;5057843;28;20060;-78
2022/01/28 02:31:36;;;;;;;8.60;1.20;;;;;;;3.12;96.08;103135.75;5053084;28;20017;-78
2022/01/28 02:34:02;;;;;;;12.88;1.50;;;;;;;3.09;95.91;103127.03;5069071;28;20166;-78
2022/01/28 02:36:27;;;;;;;9.30;1.10;;;;;;;3.12;95.79;103140.88;5059780;28;20124;-78
2022/01/28 02:38:53;;;;;;;8.52;1.08;;;;;;;3.11;95.59;103138.22;5049793;28;20037;-77
2022/01/28 02:41:19;;;;;;;12.80;1.50;;;;;;;3.11;95.81;103151.03;5043877;28;20040;-78
2022/01/28 02:46:35;;;;;;;12.32;1.50;;;;;;;3.12;95.89;103152.81;5027322;28;20064;-78
2022/01/28 02:49:07;;;;;;;13.00;1.60;;;;;;;3.11;96.21;103146.78;5067608;28;20028;-77
2022/01/28 02:51:33;;;;;;;12.90;1.30;;;;;;;3.12;96.64;103155.38;5061629;28;20055;-78
2022/01/28 02:54:01;;;;;;;17.08;1.40;;;;;;;3.14;96.55;103152.03;5065861;28;20031;-78
2022/01/28 02:56:37;;;;;;;9.75;1.10;;;;;;;3.18;96.72;103160.75;5051395;28;20033;-78
2022/01/28 02:59:03;;;;;;;12.18;1.60;;;;;;;3.16;97.02;103160.69;5063343;28;20166;-78
2022/01/28 03:01:28;;;;;;;12.80;1.70;;;;;;;3.22;96.12;103161.75;5068693;28;20395;-78
2022/01/28 03:03:55;;;;;;;7.90;1.10;;;;;;;3.21;96.19;103166.00;5069558;28;20031;-78
2022/01/28 03:06:21;;;;;;;10.02;1.10;;;;;;;3.19;96.05;103165.06;5067940;28;20024;-78
2022/01/28 03:08:55;;;;;;;11.25;1.30;;;;;;;3.17;96.58;103172.69;5051434;28;20038;-78
2022/01/28 03:16:41;;;;;;;8.48;1.20;;;;;;;3.12;96.24;103178.44;5068476;28;20452;-78
2022/01/28 03:19:17;;;;;;;11.68;1.02;;;;;;;3.07;96.38;103182.47;5042525;28;20100;-83
2022/01/28 03:21:53;;;;;;;8.90;1.25;;;;;;;3.07;96.79;103180.75;5064506;28;20028;-83
2022/01/28 03:24:18;;;;;;;8.32;0.98;;;;;;;3.07;96.72;103179.91;5051204;28;20107;-83
2022/01/28 03:26:43;;;;;;;8.85;1.00;;;;;;;3.09;97.10;103176.59;5062674;28;20107;-83
2022/01/28 03:29:09;;;;;;;7.47;1.30;;;;;;;3.11;96.98;103174.09;5038632;28;20390;-83
2022/01/28 03:31:34;;;;;;;10.10;1.10;;;;;;;3.09;96.67;103173.16;5064018;28;20029;-83
2022/01/28 03:34:00;;;;;;;7.80;0.90;;;;;;;3.07;96.95;103169.66;5041475;28;20017;-83
2022/01/28 03:36:25;;;;;;;11.45;1.35;;;;;;;3.10;96.87;103180.91;5056470;28;20029;-81
2022/01/28 03:38:51;;;;;;;9.70;1.25;;;;;;;3.08;96.75;103182.53;5043381;28;20052;-81
2022/01/28 03:41:17;;;;;;;10.40;1.48;;;;;;;3.05;96.72;103187.53;5061806;28;20107;-82
2022/01/28 03:43:46;;;;;;;8.00;1.02;;;;;;;3.03;96.87;103189.13;5049974;28;20028;-81
2022/01/28 03:46:11;;;;;;;6.35;0.90;;;;;;;2.97;96.66;103183.75;5059620;28;20037;-81
2022/01/28 03:48:37;;;;;;;16.10;1.70;;;;;;;2.93;96.90;103189.53;5049181;28;20365;-76
2022/01/28 03:51:02;;;;;;;14.13;1.30;;;;;;;2.89;97.72;103194.44;5049008;28;20172;-76
2022/01/28 03:53:27;;;;;;;12.32;1.83;;;;;;;2.89;97.70;103197.00;5048609;28;20284;-76
2022/01/28 03:55:56;;;;;;;5.97;1.25;;;;;;;2.88;97.68;103202.91;5031115;28;20029;-76
2022/01/28 03:58:21;;;;;;;11.02;1.30;;;;;;;2.84;98.05;103194.25;5048595;28;20021;-77
2022/01/28 04:00:47;;;;;;;12.48;1.40;;;;;;;2.83;98.00;103191.59;5048814;28;20063;-77
2022/01/28 04:03:40;;;;;;;13.63;1.35;;;;;;;2.81;98.54;103195.75;5048409;28;20021;-77
2022/01/28 04:11:26;;;;;;;11.32;1.30;;;;;;;2.77;99.07;103195.66;5048429;28;20587;-77
2022/01/28 04:11:29;;;;;;;13.40;1.60;;;;;;;2.75;99.23;103187.00;5053064;28;20131;-77
2022/01/28 04:14:07;;;;;;;10.50;1.05;;;;;;;2.79;99.77;103195.72;5052552;28;20271;-77
2022/01/28 04:19:01;;;;;;;9.90;1.60;;;;;;;2.76;99.59;103188.75;5053011;28;20053;-77
2022/01/28 04:21:28;;;;;;;10.52;1.30;;;;;;;2.82;99.76;103189.84;5034408;28;20546;-77
2022/01/28 04:23:53;;;;;;;10.75;1.48;;;;;;;2.84;99.74;103199.38;5034337;28;20032;-77
2022/01/28 04:26:19;;;;;;;8.73;1.85;;;;;;;2.81;99.79;103190.66;5052306;28;20070;-76
2022/01/28 04:28:45;;;;;;;18.48;1.73;;;;;;;2.83;99.92;103194.16;5054754;28;20062;-77
2022/01/28 04:31:10;;;;;;;7.32;1.10;;;;;;;2.80;99.91;103196.59;5057208;28;20025;-77
2022/01/28 04:33:36;;;;;;;10.88;1.10;;;;;;;2.77;99.68;103202.44;5051864;28;20427;-77
2022/01/28 04:36:01;;;;;;;10.75;1.27;;;;;;;2.76;99.53;103200.69;5051706;28;20044;-77
2022/01/28 04:38:41;;;;;;;8.95;1.08;;;;;;;2.80;100.00;103211.97;5051660;28;20032;-76
2022/01/28 04:41:18;;;;;;;10.13;1.10;;;;;;;2.78;100.00;103211.88;5051984;28;20029;-77
2022/01/28 04:43:50;;;;;;;11.45;1.42;;;;;;;2.77;99.98;103220.38;5052026;28;20021;-77
2022/01/28 04:48:53;;;;;;;12.80;1.27;;;;;;;2.72;99.71;103222.72;5055615;28;20559;-77
2022/01/28 04:51:46;;;;;;;8.90;1.55;;;;;;;2.70;99.88;103223.47;5064107;28;20028;-77
2022/01/28 04:54:35;;;;;;;14.80;1.42;;;;;;;2.70;100.00;103228.56;5071397;28;20042;-77
2022/01/28 04:57:17;;;;;;;14.13;1.50;;;;;;;2.68;100.00;103223.38;5070384;28;20372;-77
2022/01/28 05:00:47;;;;;;;7.20;1.20;;;;;;;2.66;100.00;103227.53;5060933;28;20553;-77
2022/01/28 05:11:32;;;;;;;11.85;1.60;;;;;;;2.59;100.00;103229.78;5055133;28;20464;-77
2022/01/28 05:27:05;;;;;;;10.50;1.30;;;;;;;2.49;100.00;103259.16;5071203;28;20028;-77
2022/01/28 05:29:30;;;;;;;10.75;1.58;;;;;;;2.47;100.00;103262.44;5052149;28;20081;-77
2022/01/28 05:31:56;;;;;;;12.55;1.50;;;;;;;2.48;100.00;103269.31;5065276;28;20032;-77
2022/01/28 05:34:26;;;;;;;11.00;1.55;;;;;;;2.48;100.00;103270.19;5047904;28;20027;-77
2022/01/28 05:36:52;;;;;;;11.60;1.67;;;;;;;2.47;100.00;103280.34;5070845;28;20028;-77
2022/01/28 05:39:18;;;;;;;9.07;1.30;;;;;;;2.45;100.00;103287.09;5066994;28;20029;-77
2022/01/28 05:41:43;;;;;;;11.13;1.70;;;;;;;2.43;100.00;103289.56;5070926;28;20529;-77
2022/01/28 05:44:09;;;;;;;11.60;1.50;;;;;;;2.43;100.00;103298.94;5051127;28;20028;-77
2022/01/28 05:46:34;;;;;;;11.93;1.45;;;;;;;2.43;100.00;103284.47;5052879;28;20041;-77
2022/01/28 05:48:59;;;;;;;8.43;1.33;;;;;;;2.39;100.00;103291.09;5070178;28;20037;-78
2022/01/28 05:51:25;;;;;;;9.07;1.42;;;;;;;2.40;100.00;103302.22;5043276;28;20111;-78
2022/01/28 05:53:50;;;;;;;12.30;1.55;;;;;;;2.38;100.00;103302.16;5064251;28;20090;-78
2022/01/28 05:56:16;;;;;;;4.32;1.13;;;;;;;2.35;100.00;103312.22;5053133;28;20083;-78
2022/01/28 05:58:41;;;;;;;14.68;1.73;;;;;;;2.35;100.00;103306.22;5068169;28;20493;-78
2022/01/28 06:01:06;;;;;;;11.65;1.42;;;;;;;2.31;100.00;103315.47;5062587;28;20035;-78
2022/01/28 06:03:32;;;;;;;13.20;1.55;;;;;;;2.33;100.00;103312.94;5040853;28;20020;-78
2022/01/28 06:05:57;;;;;;;9.02;1.50;;;;;;;2.33;100.00;103326.63;5045478;28;20038;-78
2022/01/28 06:08:22;;;;;;;12.07;1.50;;;;;;;2.28;100.00;103325.53;5064222;28;20021;-78
2022/01/28 06:10:48;;;;;;;9.32;1.42;;;;;;;2.22;100.00;103322.66;5051904;28;20082;-78
2022/01/28 06:13:13;;;;;;;11.60;1.75;;;;;;;2.15;100.00;103323.16;5051742;28;20078;-78
2022/01/28 06:15:43;;;;;;;11.68;1.48;;;;;;;2.15;100.00;103330.81;5064798;28;20116;-77
2022/01/28 06:18:10;;;;;;;7.22;1.42;;;;;;;2.05;100.00;103331.16;5054250;28;20272;-78
2022/01/28 06:20:36;;;;;;;7.15;1.10;;;;;;;1.98;100.00;103336.75;5051418;28;20095;-78
2022/01/28 06:23:01;;;;;;;8.48;1.30;;;;;;;1.90;100.00;103335.50;5052958;28;20100;-78
2022/01/28 06:25:27;;;;;;;14.80;1.95;;;;;;;1.84;100.00;103359.06;5068196;28;20024;-78
2022/01/28 06:27:52;;;;;;;10.50;1.40;;;;;;;1.79;100.00;103360.50;5068919;28;20056;-77
2022/01/28 06:30:19;;;;;;;6.70;1.10;;;;;;;1.76;100.00;103367.13;5069533;28;20040;-78
2022/01/28 06:32:45;;;;;;;7.10;1.27;;;;;;;1.69;100.00;103365.06;5051552;28;20020;-78
2022/01/28 06:35:10;;;;;;;7.97;1.35;;;;;;;1.60;100.00;103360.31;5050995;28;20380;-78
2022/01/28 06:37:41;;;;;;;6.57;1.38;;;;;;;1.54;100.00;103378.78;5069996;28;20571;-78
2022/01/28 06:40:10;;;;;;;10.02;1.60;;;;;;;1.43;100.00;103379.00;5065099;28;20025;-78
2022/01/28 06:42:36;;;;;;;7.82;1.67;;;;;;;1.38;100.00;103388.06;5046931;28;20052;-77
2022/01/28 06:45:01;;;;;;;9.25;1.50;;;;;;;1.35;100.00;103393.91;5068194;28;20420;-78
2022/01/28 06:47:27;;;;;;;7.43;1.35;;;;;;;1.32;100.00;103385.19;5064171;28;20037;-78
2022/01/28 06:49:52;;;;;;;6.03;1.45;;;;;;;1.31;100.00;103394.53;5060051;28;20032;-78
2022/01/28 06:52:17;;;;;;;9.90;1.60;;;;;;;1.26;100.00;103382.28;5063391;28;20388;-78
2022/01/28 06:54:43;;;;;;;7.07;1.70;;;;;;;1.23;100.00;103385.56;5059435;28;20039;-78
2022/01/28 06:57:08;;;;;;;8.73;1.60;;;;;;;1.21;100.00;103404.16;5068869;28;20028;-78
2022/01/28 06:59:33;;;;;;;11.48;1.40;;;;;;;1.23;100.00;103403.44;5068855;28;20050;-78
2022/01/28 07:01:58;;;;;;;8.13;2.35;;;;;;;1.26;100.00;103411.28;5069703;28;20039;-78
2022/01/28 07:04:24;;;;;;;12.05;1.52;;;;;;;1.25;100.00;103411.19;5047107;28;20028;-78
2022/01/28 07:06:50;;;;;;;14.32;1.92;;;;;;;1.25;100.00;103414.63;5067533;28;20024;-78
2022/01/28 07:09:16;;;;;;;10.82;1.45;;;;;;;1.19;100.00;103415.16;5067996;28;20025;-78
2022/01/28 07:11:43;;;;;;;4.85;1.33;;;;;;;1.16;100.00;103409.88;5062126;28;20032;-78
2022/01/28 07:14:08;;;;;;;9.30;1.65;;;;;;;1.20;100.00;103426.28;5068657;28;20030;-78
2022/01/28 07:16:35;;;;;;;9.30;1.73;;;;;;;1.22;100.00;103434.91;5061883;28;20024;-78
2022/01/28 07:19:01;;;;;;;9.10;1.80;;;;;;;1.18;100.00;103438.94;5068262;28;20050;-78
2022/01/28 07:21:26;;;;;;;7.97;1.65;;;;;;;1.15;100.00;103432.81;5068581;28;20028;-78
2022/01/28 07:23:51;;;;;;;8.48;1.40;;;;;;;1.15;100.00;103430.25;5068702;28;20020;-78
2022/01/28 07:26:16;;;;;;;10.73;1.83;;;;;;;1.11;100.00;103428.28;5042107;28;20028;-78
2022/01/28 07:28:42;;;;;;;5.50;1.30;;;;;;;1.06;100.00;103437.38;5050718;28;20135;-78
2022/01/28 07:31:13;;;;;;;7.97;1.15;;;;;;;1.03;100.00;103450.84;5049033;28;20340;-77
2022/01/28 07:33:39;;;;;;;8.30;1.20;;;;;;;0.99;100.00;103453.16;5053528;28;20037;-78
2022/01/28 07:36:05;;;;;;;8.52;1.75;;;;;;;0.95;100.00;103441.00;5068748;28;20028;-78
2022/01/28 07:38:30;;;;;;;8.73;1.50;;;;;;;0.89;100.00;103449.16;5069020;28;20131;-78
2022/01/28 07:40:57;;;;;;;16.13;1.90;;;;;;;0.82;100.00;103453.88;5048410;28;20457;-78
2022/01/28 07:43:23;;;;;;;6.22;1.67;;;;;;;0.85;100.00;103464.22;5048355;28;20228;-78
2022/01/28 07:45:48;;;;;;;7.30;1.70;;;;;;;0.82;100.00;103467.47;5061740;28;20134;-78
2022/01/28 07:48:13;;;;;;;6.60;1.70;;;;;;;0.79;100.00;103463.09;5049541;28;20086;-77
2022/01/28 07:50:39;;;;;;;12.35;2.00;;;;;;;0.77;100.00;103468.88;5042237;28;20098;-78
2022/01/28 07:53:05;;;;;;;9.02;2.08;;;;;;;0.74;100.00;103471.28;5067083;28;20024;-78
2022/01/28 07:55:30;;;;;;;12.02;2.80;;;;;;;0.77;100.00;103477.44;5053200;28;20021;-78
2022/01/28 07:57:55;;;;;;;12.60;3.55;;;;;;;0.76;100.00;103477.34;5072664;28;20097;-78
2022/01/28 08:00:26;;;;;;;13.48;3.00;;;;;;;0.77;100.00;103482.53;5067879;28;20044;-78
2022/01/28 08:02:51;;;;;;;9.38;3.05;;;;;;;0.78;100.00;103470.66;5073808;28;20044;-78
2022/01/28 08:05:17;;;;;;;13.00;3.35;;;;;;;0.77;100.00;103479.09;5072039;28;20066;-77
2022/01/28 08:07:43;;;;;;;8.25;2.80;;;;;;;0.77;100.00;103487.66;5050473;28;20033;-78
2022/01/28 08:10:09;;;;;;;7.07;2.65;;;;;;;0.84;100.00;103499.09;5052109;28;20430;-78
2022/01/28 08:12:47;;;;;;;8.73;3.28;;;;;;;0.85;100.00;103493.19;5071009;28;20479;-77
2022/01/28 08:15:13;;;;;;;11.68;3.10;;;;;;;0.84;100.00;103499.09;5069829;28;20490;-78
2022/01/28 08:17:38;;;;;;;8.00;2.60;;;;;;;0.86;100.00;103504.28;5059361;28;20029;-78
2022/01/28 08:20:04;;;;;;;11.93;2.80;;;;;;;0.88;100.00;103507.81;5063040;28;20032;-78
2022/01/28 08:22:30;;;;;;;14.27;3.28;;;;;;;0.91;100.00;103511.44;5072703;28;20027;-78
2022/01/28 08:24:55;;;;;;;9.48;2.60;;;;;;;0.96;100.00;103521.91;5056376;28;20040;-79
2022/01/28 08:27:20;;;;;;;10.65;3.25;;;;;;;1.02;100.00;103520.63;5061149;28;20120;-79
2022/01/28 08:29:46;;;;;;;12.07;3.25;;;;;;;1.18;100.00;103519.81;5061785;28;20595;-79
2022/01/28 08:32:11;;;;;;;14.73;3.92;;;;;;;1.76;100.00;103521.44;5063480;28;20025;-79
2022/01/28 08:34:36;;;;;;;15.77;3.97;;;;;;;2.63;100.00;103514.16;5071810;28;20055;-79
2022/01/28 08:37:04;;;;;;;13.75;4.00;;;;;;;3.46;100.00;103517.50;5053999;28;20028;-79
2022/01/28 08:39:32;;;;;;;12.27;3.90;;;;;;;4.23;100.00;103516.84;5071250;28;20456;-79
2022/01/28 08:41:58;;;;;;;15.13;3.50;;;;;;;4.71;95.85;103516.41;5069114;28;20490;-79
2022/01/28 08:44:23;;;;;;;9.98;3.10;;;;;;;4.56;93.62;103508.06;5070107;28;20032;-79
2022/01/28 08:46:49;;;;;;;13.48;3.15;;;;;;;4.26;93.91;103511.81;5062702;28;20053;-79
2022/01/28 08:49:14;;;;;;;9.23;3.03;;;;;;;4.11;94.79;103519.69;5052155;28;20521;-79
2022/01/28 08:51:39;;;;;;;13.65;3.10;;;;;;;4.09;94.93;103512.75;5059404;28;20075;-79
2022/01/28 08:54:05;;;;;;;11.45;3.20;;;;;;;3.98;94.74;103508.00;5059292;28;20401;-79
2022/01/28 08:56:30;;;;;;;10.70;3.30;;;;;;;3.85;95.08;103518.50;5071671;28;20382;-79
2022/01/28 08:58:55;;;;;;;13.40;3.40;;;;;;;3.74;95.49;103524.81;5053577;28;20032;-79
2022/01/28 09:01:21;;;;;;;14.63;3.53;;;;;;;3.62;94.76;103531.91;5044338;28;20036;-79
2022/01/28 09:03:47;;;;;;;15.32;4.05;;;;;;;3.50;95.75;103527.09;5044414;28;20107;-79
2022/01/28 09:06:12;;;;;;;13.38;3.80;;;;;;;3.51;96.31;103523.72;5044059;28;20112;-79
2022/01/28 09:08:39;;;;;;;11.60;3.50;;;;;;;3.53;96.28;103523.81;5050657;28;20115;-79
2022/01/28 09:13:48;;;;;;;13.40;3.58;;;;;;;3.47;96.70;103521.81;5066706;28;20123;-79
2022/01/28 09:16:13;;;;;;;16.38;4.45;;;;;;;3.45;96.90;103520.88;5066411;28;20025;-79
2022/01/28 09:18:39;;;;;;;16.85;4.30;;;;;;;3.43;97.04;103519.91;5065183;28;20033;-79
2022/01/28 09:21:04;;;;;;;18.83;4.53;;;;;;;3.44;96.88;103516.53;5052593;28;20408;-79
2022/01/28 09:23:30;;;;;;;16.40;3.92;;;;;;;3.45;97.00;103522.53;5064679;28;20108;-79
2022/01/28 09:25:55;;;;;;;14.45;4.53;;;;;;;3.47;97.22;103532.09;5061093;28;20031;-79
2022/01/28 09:28:20;;;;;;;16.27;4.80;;;;;;;3.49;97.39;103534.69;5068213;28;20032;-79
2022/01/28 09:30:46;;;;;;;15.63;4.97;;;;;;;3.49;97.06;103537.25;5066336;28;20028;-79
2022/01/28 09:33:11;;;;;;;16.73;5.22;;;;;;;3.51;97.05;103533.97;5051818;28;20029;-79
2022/01/28 09:35:37;;;;;;;13.32;5.15;;;;;;;3.55;97.65;103528.19;5068219;28;20033;-80
2022/01/28 09:38:04;;;;;;;16.00;5.03;;;;;;;3.56;97.39;103536.75;5070436;28;20024;-78
2022/01/28 09:40:29;;;;;;;16.73;5.22;;;;;;;3.61;97.71;103537.88;5070236;28;20066;-79
2022/01/28 09:42:55;;;;;;;14.38;5.13;;;;;;;3.66;97.95;103536.41;5068647;28;20048;-79
2022/01/28 09:45:23;;;;;;;15.98;5.40;;;;;;;3.72;98.04;103541.81;5063554;28;20104;-79
2022/01/28 09:47:53;;;;;;;12.80;4.97;;;;;;;3.77;98.05;103542.03;5052639;28;20051;-79
2022/01/28 09:50:21;;;;;;;16.20;4.70;;;;;;;3.84;98.11;103547.53;5065527;28;20086;-79
2022/01/28 09:52:46;;;;;;;11.43;4.65;;;;;;;3.85;98.09;103539.03;5068755;28;20576;-79
2022/01/28 09:55:12;;;;;;;14.05;5.28;;;;;;;3.94;98.18;103560.00;5064984;28;20613;-79
2022/01/28 09:57:38;;;;;;;14.32;5.03;;;;;;;3.97;97.98;103562.69;5064873;28;20606;-79
2022/01/28 10:00:05;;;;;;;18.52;5.20;;;;;;;4.04;98.24;103560.41;5065675;28;20095;-79
2022/01/28 10:02:48;;;;;;;18.15;5.47;;;;;;;4.07;98.22;103558.88;5060861;28;20028;-79
2022/01/28 10:05:18;;;;;;;12.82;5.43;;;;;;;4.10;98.30;103556.44;5069672;28;20375;-79
2022/01/28 10:08:02;;;;;;;21.38;5.70;;;;;;;4.18;97.90;103559.34;5052111;28;20032;-79
2022/01/28 10:10:41;;;;;;;14.20;6.10;;;;;;;4.24;97.86;103567.34;5060796;28;20044;-79
2022/01/28 10:13:13;;;;;;;15.23;6.47;;;;;;;4.28;98.10;103565.00;5050004;28;20029;-79
2022/01/28 10:15:56;;;;;;;21.67;6.03;;;;;;;4.37;97.83;103567.97;5052831;28;20056;-79
2022/01/28 10:18:33;;;;;;;19.08;7.07;;;;;;;4.44;97.77;103564.00;5069553;28;20067;-79
2022/01/28 10:20:59;;;;;;;21.27;6.50;;;;;;;4.52;97.37;103564.34;5070213;28;20128;-79
2022/01/28 10:23:24;;;;;;;26.38;7.00;;;;;;;4.56;97.25;103569.69;5070233;28;20111;-76
2022/01/28 10:25:56;;;;;;;15.77;5.90;;;;;;;4.57;97.24;103562.88;5070110;28;20035;-77
2022/01/28 10:28:21;;;;;;;25.83;6.28;;;;;;;4.63;97.28;103571.72;5069968;28;20103;-77
2022/01/28 10:30:47;;;;;;;21.23;7.13;;;;;;;4.60;97.38;103557.84;5054802;28;20115;-77
2022/01/28 10:33:16;;;;;;;18.35;6.88;;;;;;;4.70;97.31;103568.63;5060885;28;20287;-77
2022/01/28 10:35:56;;;;;;;16.60;6.70;;;;;;;4.78;97.53;103570.66;5050266;28;20039;-77
2022/01/28 10:38:32;;;;;;;19.25;6.53;;;;;;;4.82;97.56;103569.97;5111807;27;20536;-77
2022/01/28 10:41:12;;;;;;;14.88;6.50;;;;;;;4.89;97.37;103569.41;5106980;28;20036;-77
2022/01/28 10:43:41;;;;;;;19.65;5.35;;;;;;;4.96;96.54;103574.00;5107079;28;20118;-77
2022/01/28 10:46:07;;;;;;;12.90;5.07;;;;;;;5.01;96.94;103564.78;5106476;28;20078;-77
2022/01/28 10:48:32;;;;;;;18.45;5.45;;;;;;;5.05;96.44;103564.13;5107124;28;20389;-77
2022/01/28 10:50:58;;;;;;;16.00;5.85;;;;;;;5.11;96.11;103564.38;5106825;28;20036;-77
2022/01/28 10:53:27;;;;;;;16.60;4.88;;;;;;;5.19;95.92;103569.84;5107102;28;20394;-77
2022/01/28 10:55:54;;;;;;;15.35;4.97;;;;;;;5.22;95.84;103563.13;5107164;28;20039;-77
2022/01/28 10:58:25;;;;;;;16.90;4.78;;;;;;;5.30;95.67;103560.88;5107014;28;20423;-77
2022/01/28 11:00:57;;;;;;;14.32;4.82;;;;;;;5.31;95.91;103545.53;5104157;28;20510;-78
2022/01/28 11:03:26;;;;;;;14.05;5.32;;;;;;;5.37;95.62;103560.34;5085054;28;20146;-78
2022/01/28 11:05:56;;;;;;;19.15;4.93;;;;;;;5.41;95.91;103557.94;5103412;28;20739;-78
2022/01/28 11:08:24;;;;;;;15.23;4.82;;;;;;;5.43;95.63;103555.44;5094907;28;20424;-78
2022/01/28 11:10:50;;;;;;;18.23;4.38;;;;;;;5.45;95.00;103551.25;5085180;28;20081;-77
2022/01/28 11:13:15;;;;;;;13.90;4.20;;;;;;;5.50;94.95;103547.16;5086235;28;20032;-78
2022/01/28 11:15:40;;;;;;;15.13;4.10;;;;;;;5.52;95.07;103543.84;5086437;28;20386;-78
2022/01/28 11:18:09;;;;;;;13.75;4.82;;;;;;;5.59;94.77;103538.94;5095404;28;20066;-77
2022/01/28 11:20:37;;;;;;;11.38;4.28;;;;;;;5.67;94.80;103532.38;5106035;28;20045;-77
2022/01/28 11:23:14;;;;;;;22.23;4.60;;;;;;;5.72;94.21;103529.19;5106274;28;20405;-78
2022/01/28 11:26:10;;;;;;;13.02;4.25;;;;;;;5.77;93.55;103519.94;5106481;28;20020;-78
2022/01/28 11:28:44;;;;;;;17.73;4.75;;;;;;;5.84;93.12;103506.50;5104766;28;20436;-78
2022/01/28 11:31:10;;;;;;;;;;;;;;;5.89;93.56;103498.97;5105571;28;20023;-77
2022/01/28 11:34:13;;;;;;;10.63;3.33;;;;;;;5.93;92.43;103500.88;5106438;28;19908;-77
2022/01/28 11:36:38;;;;;;;9.88;3.00;;;;;;;5.99;91.45;103501.09;5104001;28;20043;-78
2022/01/28 11:39:17;;;;;;;15.23;2.33;;;;;;;6.15;90.29;103498.25;5106153;28;20072;-78
2022/01/28 11:42:03;;;;;;;14.15;2.10;;;;;;;6.32;87.62;103502.34;5106240;28;20367;-78
2022/01/28 11:44:50;;;;;;;14.43;2.30;;;;;;;6.56;89.43;103506.59;5106521;28;20161;-78
2022/01/28 11:47:36;;;;;;;11.82;2.25;;;;;;;6.68;88.55;103504.47;5104571;28;20085;-78
2022/01/28 11:50:11;;;;;;;7.53;2.10;;;;;;;6.72;86.74;103494.31;5092035;28;20035;-78
2022/01/28 11:52:43;;;;;;;15.35;2.42;;;;;;;6.75;84.48;103499.56;5087641;28;20065;-78
2022/01/28 11:55:17;;;;;;;8.27;2.00;;;;;;;6.78;86.05;103496.22;5076533;28;20119;-78
2022/01/28 11:58:11;;;;;;;11.02;2.45;;;;;;;6.79;87.35;103494.53;5070782;28;20059;-78
2022/01/28 12:00:42;;;;;;;9.90;3.05;;;;;;;6.85;85.70;103495.63;5072543;28;20099;-78
2022/01/28 12:03:24;;;;;;;9.52;3.08;;;;;;;6.88;87.13;103493.16;5070553;28;20023;-78
2022/01/28 12:06:10;;;;;;;11.32;3.05;;;;;;;7.01;86.88;103494.44;5080088;28;20024;-78
2022/01/28 12:08:38;;;;;;;8.90;2.00;;;;;;;7.13;83.39;103503.47;5092011;28;20510;-78
2022/01/28 12:11:07;;;;;;;9.85;1.50;;;;;;;7.14;81.90;103501.75;5092307;28;20419;-78
2022/01/28 12:13:49;;;;;;;7.70;1.25;;;;;;;7.08;82.22;103499.84;5088390;28;20132;-78
2022/01/28 12:16:26;;;;;;;7.45;1.20;;;;;;;7.03;81.49;103483.34;5070175;28;20035;-78
2022/01/28 12:18:56;;;;;;;10.30;2.03;;;;;;;6.93;80.90;103483.88;5070422;28;20356;-78
2022/01/28 12:21:22;;;;;;;11.38;1.98;;;;;;;6.85;82.12;103487.00;5070169;28;20071;-78
2022/01/28 12:23:48;;;;;;;13.27;2.00;;;;;;;6.79;82.10;103477.38;5068885;28;20556;-78
2022/01/28 12:26:17;;;;;;;4.72;1.05;;;;;;;6.80;82.39;103468.81;5071583;28;20025;-78
2022/01/28 12:28:56;;;;;;;9.18;1.45;;;;;;;6.82;83.63;103467.16;5067830;28;20441;-78
2022/01/28 12:31:29;;;;;;;9.85;1.63;;;;;;;6.87;82.90;103462.16;5071624;28;20028;-78
2022/01/28 12:33:57;;;;;;;6.88;1.35;;;;;;;6.90;82.78;103445.06;5070260;28;20111;-78
2022/01/28 12:36:26;;;;;;;15.30;1.45;;;;;;;6.98;80.95;103456.53;5071211;28;20032;-78
2022/01/28 12:38:59;;;;;;;10.02;1.58;;;;;;;7.11;82.52;103443.19;5070080;28;20459;-78